sensor_id;sensor_type;location;lat;lon;timestamp;pressure;altitude;pressure_sealevel;temperature;humidity
75460;BME280;64039;53.060;9.342;2022-11-27T00:01:48;102392.13;;;4.30;100.00
75460;BME280;64039;53.060;9.342;2022-11-27T00:04:14;102388.75;;;4.31;100.00
75460;BME280;64039;53.060;9.342;2022-11-27T00:06:40;102387.66;;;4.27;100.00
75460;BME280;64039;53.060;9.342;2022-11-27T00:09:09;102378.13;;;4.14;100.00
75460;BME280;64039;53.060;9.342;2022-11-27T00:11:35;102384.97;;;4.14;100.00
75460;BME280;64039;53.060;9.342;2022-11-27T00:14:04;102380.72;;;4.02;100.00
75460;BME280;64039;53.060;9.342;2022-11-27T00:16:30;102383.19;;;3.89;100.00
75460;BME280;64039;53.060;9.342;2022-11-27T00:18:56;102381.94;;;3.84;100.00
75460;BME280;64039;53.060;9.342;2022-11-27T00:21:23;102377.47;;;3.93;100.00
75460;BME280;64039;53.060;9.342;2022-11-27T00:23:51;102381.38;;;3.88;100.00
75460;BME280;64039;53.060;9.342;2022-11-27T00:26:17;102380.81;;;3.92;100.00
75460;BME280;64039;53.060;9.342;2022-11-27T00:28:43;102382.59;;;3.93;100.00
75460;BME280;64039;53.060;9.342;2022-11-27T00:31:35;102384.31;;;3.92;100.00
75460;BME280;64039;53.060;9.342;2022-11-27T00:34:05;102377.78;;;3.86;100.00
75460;BME280;64039;53.060;9.342;2022-11-27T00:36:32;102377.56;;;3.83;100.00
75460;BME280;64039;53.060;9.342;2022-11-27T00:38:58;102377.00;;;3.87;100.00
75460;BME280;64039;53.060;9.342;2022-11-27T00:41:28;102377.91;;;3.87;100.00
75460;BME280;64039;53.060;9.342;2022-11-27T00:43:54;102376.91;;;3.85;100.00
75460;BME280;64039;53.060;9.342;2022-11-27T00:46:26;102386.97;;;3.82;100.00
75460;BME280;64039;53.060;9.342;2022-11-27T00:48:51;102372.63;;;3.86;100.00
75460;BME280;64039;53.060;9.342;2022-11-27T00:51:19;102383.97;;;3.88;100.00
75460;BME280;64039;53.060;9.342;2022-11-27T00:53:45;102382.94;;;3.86;100.00
75460;BME280;64039;53.060;9.342;2022-11-27T00:56:19;102372.31;;;3.93;100.00
75460;BME280;64039;53.060;9.342;2022-11-27T00:58:45;102365.00;;;3.87;100.00
75460;BME280;64039;53.060;9.342;2022-11-27T01:01:25;102360.78;;;3.88;100.00
75460;BME280;64039;53.060;9.342;2022-11-27T01:03:52;102356.16;;;3.96;100.00
75460;BME280;64039;53.060;9.342;2022-11-27T01:06:18;102363.34;;;4.00;100.00
75460;BME280;64039;53.060;9.342;2022-11-27T01:08:44;102358.09;;;3.98;100.00
75460;BME280;64039;53.060;9.342;2022-11-27T01:11:19;102361.56;;;3.99;100.00
75460;BME280;64039;53.060;9.342;2022-11-27T01:13:45;102367.94;;;4.04;100.00
75460;BME280;64039;53.060;9.342;2022-11-27T01:16:16;102356.50;;;4.12;100.00
75460;BME280;64039;53.060;9.342;2022-11-27T01:18:44;102347.19;;;4.14;100.00
75460;BME280;64039;53.060;9.342;2022-11-27T01:21:11;102349.75;;;4.26;100.00
75460;BME280;64039;53.060;9.342;2022-11-27T01:23:36;102345.41;;;4.13;100.00
75460;BME280;64039;53.060;9.342;2022-11-27T01:26:04;102350.69;;;4.15;100.00
75460;BME280;64039;53.060;9.342;2022-11-27T01:28:30;102341.16;;;4.14;100.00
75460;BME280;64039;53.060;9.342;2022-11-27T01:30:56;102338.13;;;4.19;100.00
75460;BME280;64039;53.060;9.342;2022-11-27T01:33:22;102340.72;;;4.19;100.00
75460;BME280;64039;53.060;9.342;2022-11-27T01:35:59;102347.75;;;4.22;100.00
75460;BME280;64039;53.060;9.342;2022-11-27T01:38:26;102340.81;;;4.21;100.00
75460;BME280;64039;53.060;9.342;2022-11-27T01:43:59;102343.81;;;4.27;100.00
75460;BME280;64039;53.060;9.342;2022-11-27T01:46:43;102347.50;;;4.31;100.00
75460;BME280;64039;53.060;9.342;2022-11-27T01:51:36;102347.38;;;4.41;100.00
75460;BME280;64039;53.060;9.342;2022-11-27T01:54:04;102340.44;;;4.40;100.00
75460;BME280;64039;53.060;9.342;2022-11-27T01:56:30;102343.00;;;4.40;100.00
75460;BME280;64039;53.060;9.342;2022-11-27T01:58:57;102341.44;;;4.42;100.00
75460;BME280;64039;53.060;9.342;2022-11-27T02:01:23;102344.84;;;4.29;100.00
75460;BME280;64039;53.060;9.342;2022-11-27T02:03:52;102337.88;;;4.28;100.00
75460;BME280;64039;53.060;9.342;2022-11-27T02:06:18;102329.59;;;4.20;100.00
75460;BME280;64039;53.060;9.342;2022-11-27T02:08:44;102331.75;;;4.14;100.00
75460;BME280;64039;53.060;9.342;2022-11-27T02:14:17;102340.84;;;4.09;100.00
75460;BME280;64039;53.060;9.342;2022-11-27T02:19:32;102329.94;;;4.13;100.00
75460;BME280;64039;53.060;9.342;2022-11-27T02:22:08;102311.38;;;4.05;100.00
75460;BME280;64039;53.060;9.342;2022-11-27T02:24:49;102314.94;;;3.96;100.00
75460;BME280;64039;53.060;9.342;2022-11-27T02:30:01;102315.63;;;4.05;100.00
75460;BME280;64039;53.060;9.342;2022-11-27T02:32:34;102320.66;;;4.03;100.00
75460;BME280;64039;53.060;9.342;2022-11-27T02:35:22;102323.34;;;4.05;100.00
75460;BME280;64039;53.060;9.342;2022-11-27T02:37:59;102319.13;;;3.93;100.00
75460;BME280;64039;53.060;9.342;2022-11-27T02:43:10;102318.53;;;3.86;100.00
75460;BME280;64039;53.060;9.342;2022-11-27T02:45:48;102321.91;;;3.73;100.00
75460;BME280;64039;53.060;9.342;2022-11-27T02:48:18;102311.25;;;3.68;100.00
75460;BME280;64039;53.060;9.342;2022-11-27T02:50:45;102308.25;;;3.62;100.00
75460;BME280;64039;53.060;9.342;2022-11-27T02:53:17;102304.56;;;3.58;100.00
75460;BME280;64039;53.060;9.342;2022-11-27T02:55:45;102307.81;;;3.68;100.00
75460;BME280;64039;53.060;9.342;2022-11-27T02:58:15;102317.78;;;3.63;100.00
75460;BME280;64039;53.060;9.342;2022-11-27T03:00:43;102306.56;;;3.62;100.00
75460;BME280;64039;53.060;9.342;2022-11-27T03:03:12;102305.53;;;3.49;100.00
75460;BME280;64039;53.060;9.342;2022-11-27T03:05:41;102311.25;;;3.44;100.00
75460;BME280;64039;53.060;9.342;2022-11-27T03:08:24;102306.31;;;3.36;100.00
75460;BME280;64039;53.060;9.342;2022-11-27T03:11:01;102306.97;;;3.33;100.00
75460;BME280;64039;53.060;9.342;2022-11-27T03:13:31;102301.72;;;3.32;100.00
75460;BME280;64039;53.060;9.342;2022-11-27T03:16:13;102297.34;;;3.19;100.00
75460;BME280;64039;53.060;9.342;2022-11-27T03:21:56;102295.31;;;3.14;100.00
75460;BME280;64039;53.060;9.342;2022-11-27T03:24:23;102292.88;;;3.28;100.00
75460;BME280;64039;53.060;9.342;2022-11-27T03:26:49;102289.38;;;3.15;100.00
75460;BME280;64039;53.060;9.342;2022-11-27T03:29:46;102281.09;;;3.08;100.00
75460;BME280;64039;53.060;9.342;2022-11-27T03:32:13;102279.66;;;3.11;100.00
75460;BME280;64039;53.060;9.342;2022-11-27T03:34:39;102276.59;;;2.93;100.00
75460;BME280;64039;53.060;9.342;2022-11-27T03:37:05;102276.88;;;2.86;100.00
75460;BME280;64039;53.060;9.342;2022-11-27T03:39:31;102274.50;;;2.77;100.00
75460;BME280;64039;53.060;9.342;2022-11-27T03:42:16;102276.53;;;2.81;100.00
75460;BME280;64039;53.060;9.342;2022-11-27T03:44:50;102276.00;;;2.86;100.00
75460;BME280;64039;53.060;9.342;2022-11-27T03:50:21;102282.03;;;2.86;100.00
75460;BME280;64039;53.060;9.342;2022-11-27T03:55:56;102290.56;;;2.97;100.00
75460;BME280;64039;53.060;9.342;2022-11-27T03:58:53;102287.97;;;2.85;100.00
75460;BME280;64039;53.060;9.342;2022-11-27T04:01:24;102279.19;;;2.71;100.00
75460;BME280;64039;53.060;9.342;2022-11-27T04:03:51;102272.00;;;2.67;100.00
75460;BME280;64039;53.060;9.342;2022-11-27T04:06:16;102269.44;;;2.67;100.00
75460;BME280;64039;53.060;9.342;2022-11-27T04:08:42;102270.75;;;2.84;100.00
75460;BME280;64039;53.060;9.342;2022-11-27T04:11:09;102268.19;;;2.62;100.00
75460;BME280;64039;53.060;9.342;2022-11-27T04:13:34;102267.06;;;2.58;100.00
75460;BME280;64039;53.060;9.342;2022-11-27T04:16:00;102268.16;;;2.50;100.00
75460;BME280;64039;53.060;9.342;2022-11-27T04:18:26;102272.38;;;2.72;100.00
75460;BME280;64039;53.060;9.342;2022-11-27T04:20:51;102271.28;;;2.80;100.00
75460;BME280;64039;53.060;9.342;2022-11-27T04:23:17;102273.06;;;2.81;100.00
75460;BME280;64039;53.060;9.342;2022-11-27T04:25:42;102269.47;;;2.79;100.00
75460;BME280;64039;53.060;9.342;2022-11-27T04:28:08;102267.31;;;2.73;100.00
75460;BME280;64039;53.060;9.342;2022-11-27T04:30:33;102264.91;;;2.75;100.00
75460;BME280;64039;53.060;9.342;2022-11-27T04:32:59;102263.97;;;2.74;100.00
75460;BME280;64039;53.060;9.342;2022-11-27T04:35:24;102266.50;;;2.62;100.00
75460;BME280;64039;53.060;9.342;2022-11-27T04:37:50;102259.00;;;2.54;100.00
75460;BME280;64039;53.060;9.342;2022-11-27T04:40:15;102254.91;;;2.33;100.00
75460;BME280;64039;53.060;9.342;2022-11-27T04:42:41;102249.34;;;2.39;100.00
75460;BME280;64039;53.060;9.342;2022-11-27T04:45:07;102252.50;;;2.25;100.00
75460;BME280;64039;53.060;9.342;2022-11-27T04:47:33;102243.75;;;2.23;100.00
75460;BME280;64039;53.060;9.342;2022-11-27T04:49:58;102247.13;;;2.22;100.00
75460;BME280;64039;53.060;9.342;2022-11-27T04:52:24;102239.56;;;2.13;100.00
75460;BME280;64039;53.060;9.342;2022-11-27T04:54:49;102230.44;;;2.16;100.00
75460;BME280;64039;53.060;9.342;2022-11-27T04:57:14;102223.41;;;2.14;100.00
75460;BME280;64039;53.060;9.342;2022-11-27T04:59:40;102216.09;;;2.08;100.00
75460;BME280;64039;53.060;9.342;2022-11-27T05:02:05;102213.13;;;2.14;100.00
75460;BME280;64039;53.060;9.342;2022-11-27T05:04:31;102209.66;;;2.13;100.00
75460;BME280;64039;53.060;9.342;2022-11-27T05:06:56;102204.59;;;2.03;100.00
75460;BME280;64039;53.060;9.342;2022-11-27T05:09:22;102196.22;;;2.06;100.00
75460;BME280;64039;53.060;9.342;2022-11-27T05:11:47;102186.06;;;2.07;100.00
75460;BME280;64039;53.060;9.342;2022-11-27T05:14:13;102173.03;;;1.94;100.00
75460;BME280;64039;53.060;9.342;2022-11-27T05:16:53;102161.09;;;1.94;100.00
75460;BME280;64039;53.060;9.342;2022-11-27T05:19:20;102161.16;;;1.84;100.00
75460;BME280;64039;53.060;9.342;2022-11-27T05:21:47;102162.41;;;1.89;100.00
75460;BME280;64039;53.060;9.342;2022-11-27T05:24:15;102155.38;;;2.09;100.00
75460;BME280;64039;53.060;9.342;2022-11-27T05:26:41;102159.19;;;2.14;100.00
75460;BME280;64039;53.060;9.342;2022-11-27T05:29:08;102167.94;;;2.28;100.00
75460;BME280;64039;53.060;9.342;2022-11-27T05:31:34;102181.16;;;2.32;100.00
75460;BME280;64039;53.060;9.342;2022-11-27T05:34:00;102189.75;;;2.33;100.00
75460;BME280;64039;53.060;9.342;2022-11-27T05:36:26;102184.91;;;2.26;100.00
75460;BME280;64039;53.060;9.342;2022-11-27T05:38:51;102178.28;;;1.95;100.00
75460;BME280;64039;53.060;9.342;2022-11-27T05:41:17;102178.34;;;1.85;100.00
75460;BME280;64039;53.060;9.342;2022-11-27T05:43:42;102174.22;;;1.87;100.00
75460;BME280;64039;53.060;9.342;2022-11-27T05:46:11;102167.97;;;1.83;100.00
75460;BME280;64039;53.060;9.342;2022-11-27T05:48:37;102163.13;;;1.76;100.00
75460;BME280;64039;53.060;9.342;2022-11-27T05:51:04;102163.72;;;1.62;100.00
75460;BME280;64039;53.060;9.342;2022-11-27T05:53:29;102161.66;;;1.57;100.00
75460;BME280;64039;53.060;9.342;2022-11-27T05:56:07;102171.81;;;1.56;100.00
75460;BME280;64039;53.060;9.342;2022-11-27T05:58:33;102169.63;;;1.61;100.00
75460;BME280;64039;53.060;9.342;2022-11-27T06:00:59;102169.00;;;1.53;100.00
75460;BME280;64039;53.060;9.342;2022-11-27T06:03:25;102172.69;;;1.56;100.00
75460;BME280;64039;53.060;9.342;2022-11-27T06:05:51;102173.72;;;1.59;100.00
75460;BME280;64039;53.060;9.342;2022-11-27T06:08:16;102173.25;;;1.52;100.00
75460;BME280;64039;53.060;9.342;2022-11-27T06:10:42;102175.34;;;1.46;100.00
75460;BME280;64039;53.060;9.342;2022-11-27T06:13:07;102171.84;;;1.46;100.00
75460;BME280;64039;53.060;9.342;2022-11-27T06:15:33;102169.47;;;1.37;100.00
75460;BME280;64039;53.060;9.342;2022-11-27T06:17:59;102163.19;;;1.33;100.00
75460;BME280;64039;53.060;9.342;2022-11-27T06:20:25;102169.69;;;1.40;100.00
75460;BME280;64039;53.060;9.342;2022-11-27T06:22:50;102172.41;;;1.31;100.00
75460;BME280;64039;53.060;9.342;2022-11-27T06:25:16;102160.75;;;1.24;100.00
75460;BME280;64039;53.060;9.342;2022-11-27T06:27:41;102170.88;;;1.33;100.00
75460;BME280;64039;53.060;9.342;2022-11-27T06:30:08;102165.78;;;1.23;100.00
75460;BME280;64039;53.060;9.342;2022-11-27T06:32:33;102161.16;;;1.19;100.00
75460;BME280;64039;53.060;9.342;2022-11-27T06:34:59;102160.38;;;1.20;100.00
75460;BME280;64039;53.060;9.342;2022-11-27T06:37:24;102150.16;;;1.09;100.00
75460;BME280;64039;53.060;9.342;2022-11-27T06:39:50;102152.84;;;1.11;100.00
75460;BME280;64039;53.060;9.342;2022-11-27T06:42:15;102145.94;;;1.10;100.00
75460;BME280;64039;53.060;9.342;2022-11-27T06:44:41;102147.38;;;0.96;100.00
75460;BME280;64039;53.060;9.342;2022-11-27T06:47:06;102141.97;;;1.03;100.00
75460;BME280;64039;53.060;9.342;2022-11-27T06:49:32;102131.19;;;1.07;100.00
75460;BME280;64039;53.060;9.342;2022-11-27T06:51:58;102123.53;;;0.97;100.00
75460;BME280;64039;53.060;9.342;2022-11-27T06:54:24;102122.22;;;1.02;100.00
75460;BME280;64039;53.060;9.342;2022-11-27T06:56:49;102122.75;;;1.08;100.00
75460;BME280;64039;53.060;9.342;2022-11-27T06:59:16;102123.78;;;1.00;100.00
75460;BME280;64039;53.060;9.342;2022-11-27T07:01:41;102111.00;;;0.90;100.00
75460;BME280;64039;53.060;9.342;2022-11-27T07:04:11;102109.03;;;0.98;100.00
75460;BME280;64039;53.060;9.342;2022-11-27T07:06:37;102112.50;;;0.98;100.00
75460;BME280;64039;53.060;9.342;2022-11-27T07:09:04;102110.59;;;0.96;100.00
75460;BME280;64039;53.060;9.342;2022-11-27T07:11:30;102108.16;;;0.97;100.00
75460;BME280;64039;53.060;9.342;2022-11-27T07:14:00;102115.28;;;1.01;100.00
75460;BME280;64039;53.060;9.342;2022-11-27T07:16:27;102115.03;;;1.08;100.00
75460;BME280;64039;53.060;9.342;2022-11-27T07:18:56;102112.47;;;1.08;100.00
75460;BME280;64039;53.060;9.342;2022-11-27T07:21:22;102118.31;;;1.18;100.00
75460;BME280;64039;53.060;9.342;2022-11-27T07:23:48;102128.69;;;1.30;100.00
75460;BME280;64039;53.060;9.342;2022-11-27T07:26:25;102118.56;;;1.21;100.00
75460;BME280;64039;53.060;9.342;2022-11-27T07:28:51;102123.69;;;1.31;100.00
75460;BME280;64039;53.060;9.342;2022-11-27T07:31:19;102120.94;;;1.40;100.00
75460;BME280;64039;53.060;9.342;2022-11-27T07:33:45;102121.22;;;1.33;100.00
75460;BME280;64039;53.060;9.342;2022-11-27T07:36:16;102119.69;;;1.35;100.00
75460;BME280;64039;53.060;9.342;2022-11-27T07:38:42;102120.09;;;1.29;100.00
75460;BME280;64039;53.060;9.342;2022-11-27T07:41:10;102110.47;;;1.27;100.00
75460;BME280;64039;53.060;9.342;2022-11-27T07:43:36;102093.66;;;1.30;100.00
75460;BME280;64039;53.060;9.342;2022-11-27T07:46:05;102091.00;;;1.29;100.00
75460;BME280;64039;53.060;9.342;2022-11-27T07:48:32;102095.28;;;1.40;100.00
75460;BME280;64039;53.060;9.342;2022-11-27T07:50:57;102094.00;;;1.45;100.00
75460;BME280;64039;53.060;9.342;2022-11-27T07:53:23;102090.72;;;1.58;100.00
75460;BME280;64039;53.060;9.342;2022-11-27T07:55:48;102093.50;;;1.61;100.00
75460;BME280;64039;53.060;9.342;2022-11-27T07:58:14;102082.66;;;1.76;100.00
75460;BME280;64039;53.060;9.342;2022-11-27T08:00:39;102089.69;;;1.78;100.00
75460;BME280;64039;53.060;9.342;2022-11-27T08:03:05;102088.38;;;1.83;100.00
75460;BME280;64039;53.060;9.342;2022-11-27T08:05:33;102086.16;;;1.88;100.00
75460;BME280;64039;53.060;9.342;2022-11-27T08:08:00;102087.28;;;1.92;100.00
75460;BME280;64039;53.060;9.342;2022-11-27T08:10:29;102092.41;;;1.92;100.00
75460;BME280;64039;53.060;9.342;2022-11-27T08:12:54;102100.88;;;2.13;100.00
75460;BME280;64039;53.060;9.342;2022-11-27T08:15:20;102096.13;;;2.29;100.00
75460;BME280;64039;53.060;9.342;2022-11-27T08:17:45;102100.03;;;2.24;100.00
75460;BME280;64039;53.060;9.342;2022-11-27T08:20:11;102090.78;;;2.26;100.00
75460;BME280;64039;53.060;9.342;2022-11-27T08:22:36;102089.84;;;2.26;100.00
75460;BME280;64039;53.060;9.342;2022-11-27T08:25:02;102080.03;;;2.32;100.00
75460;BME280;64039;53.060;9.342;2022-11-27T08:27:30;102084.22;;;2.42;100.00
75460;BME280;64039;53.060;9.342;2022-11-27T08:29:56;102075.38;;;2.38;100.00
75460;BME280;64039;53.060;9.342;2022-11-27T08:32:21;102081.63;;;2.42;100.00
75460;BME280;64039;53.060;9.342;2022-11-27T08:34:47;102077.72;;;2.47;100.00
75460;BME280;64039;53.060;9.342;2022-11-27T08:37:12;102079.84;;;2.53;100.00
75460;BME280;64039;53.060;9.342;2022-11-27T08:39:38;102079.84;;;2.53;100.00
75460;BME280;64039;53.060;9.342;2022-11-27T08:42:03;102081.31;;;2.73;100.00
75460;BME280;64039;53.060;9.342;2022-11-27T08:44:28;102069.16;;;2.82;100.00
75460;BME280;64039;53.060;9.342;2022-11-27T08:46:54;102068.38;;;2.83;100.00
75460;BME280;64039;53.060;9.342;2022-11-27T08:49:19;102074.72;;;2.88;100.00
75460;BME280;64039;53.060;9.342;2022-11-27T08:51:45;102070.38;;;2.87;100.00
75460;BME280;64039;53.060;9.342;2022-11-27T08:54:10;102062.56;;;2.86;100.00
75460;BME280;64039;53.060;9.342;2022-11-27T08:56:36;102064.00;;;2.94;100.00
75460;BME280;64039;53.060;9.342;2022-11-27T08:59:01;102055.72;;;2.86;100.00
75460;BME280;64039;53.060;9.342;2022-11-27T09:01:29;102047.03;;;2.84;100.00
75460;BME280;64039;53.060;9.342;2022-11-27T09:03:56;102037.84;;;2.88;100.00
75460;BME280;64039;53.060;9.342;2022-11-27T09:06:24;102044.88;;;2.90;100.00
75460;BME280;64039;53.060;9.342;2022-11-27T09:08:55;102034.34;;;2.99;100.00
75460;BME280;64039;53.060;9.342;2022-11-27T09:11:21;102032.78;;;3.01;100.00
75460;BME280;64039;53.060;9.342;2022-11-27T09:13:47;102038.38;;;2.95;100.00
75460;BME280;64039;53.060;9.342;2022-11-27T09:16:15;102038.59;;;2.98;100.00
75460;BME280;64039;53.060;9.342;2022-11-27T09:18:45;102032.34;;;3.07;100.00
75460;BME280;64039;53.060;9.342;2022-11-27T09:21:13;102026.50;;;3.09;100.00
75460;BME280;64039;53.060;9.342;2022-11-27T09:23:39;102021.59;;;3.12;100.00
75460;BME280;64039;53.060;9.342;2022-11-27T09:26:08;102018.88;;;3.23;100.00
75460;BME280;64039;53.060;9.342;2022-11-27T09:28:35;102014.50;;;3.34;100.00
75460;BME280;64039;53.060;9.342;2022-11-27T09:31:02;102004.34;;;3.49;100.00
75460;BME280;64039;53.060;9.342;2022-11-27T09:33:30;101994.75;;;3.71;100.00
75460;BME280;64039;53.060;9.342;2022-11-27T09:35:56;101989.53;;;3.83;100.00
75460;BME280;64039;53.060;9.342;2022-11-27T09:38:22;101999.47;;;3.90;100.00
75460;BME280;64039;53.060;9.342;2022-11-27T09:40:52;101996.03;;;4.03;100.00
75460;BME280;64039;53.060;9.342;2022-11-27T09:43:28;101995.03;;;4.01;100.00
75460;BME280;64039;53.060;9.342;2022-11-27T09:46:03;101995.41;;;4.07;100.00
75460;BME280;64039;53.060;9.342;2022-11-27T09:48:37;101991.66;;;4.16;100.00
75460;BME280;64039;53.060;9.342;2022-11-27T09:51:10;101998.31;;;4.12;100.00
75460;BME280;64039;53.060;9.342;2022-11-27T09:53:46;101996.25;;;4.20;100.00
75460;BME280;64039;53.060;9.342;2022-11-27T09:56:15;101999.13;;;4.24;100.00
75460;BME280;64039;53.060;9.342;2022-11-27T09:58:49;101993.28;;;4.27;100.00
75460;BME280;64039;53.060;9.342;2022-11-27T10:01:23;101991.00;;;4.32;100.00
75460;BME280;64039;53.060;9.342;2022-11-27T10:03:50;101993.09;;;4.37;100.00
75460;BME280;64039;53.060;9.342;2022-11-27T10:18:03;101978.50;;;4.65;100.00
75460;BME280;64039;53.060;9.342;2022-11-27T10:20:47;101984.97;;;4.71;100.00
75460;BME280;64039;53.060;9.342;2022-11-27T10:25:50;101982.16;;;4.95;100.00
75460;BME280;64039;53.060;9.342;2022-11-27T10:31:08;101978.28;;;5.02;100.00
75460;BME280;64039;53.060;9.342;2022-11-27T10:33:56;101974.56;;;5.12;100.00
75460;BME280;64039;53.060;9.342;2022-11-27T10:36:47;101978.53;;;5.20;100.00
75460;BME280;64039;53.060;9.342;2022-11-27T10:39:34;101975.34;;;5.24;100.00
75460;BME280;64039;53.060;9.342;2022-11-27T10:42:10;101964.81;;;5.21;100.00
75460;BME280;64039;53.060;9.342;2022-11-27T10:44:45;101961.31;;;5.34;100.00
75460;BME280;64039;53.060;9.342;2022-11-27T10:47:12;101965.75;;;5.37;100.00
75460;BME280;64039;53.060;9.342;2022-11-27T10:49:39;101969.91;;;5.48;100.00
75460;BME280;64039;53.060;9.342;2022-11-27T10:52:14;101960.72;;;5.53;100.00
75460;BME280;64039;53.060;9.342;2022-11-27T10:54:40;101976.22;;;5.53;100.00
75460;BME280;64039;53.060;9.342;2022-11-27T11:00:14;101968.59;;;5.70;100.00
75460;BME280;64039;53.060;9.342;2022-11-27T11:02:40;101974.66;;;5.70;100.00
75460;BME280;64039;53.060;9.342;2022-11-27T11:05:25;101978.75;;;5.81;100.00
75460;BME280;64039;53.060;9.342;2022-11-27T11:08:00;101968.50;;;5.68;100.00
75460;BME280;64039;53.060;9.342;2022-11-27T11:10:43;101970.66;;;5.75;100.00
75460;BME280;64039;53.060;9.342;2022-11-27T11:13:24;101954.63;;;5.81;100.00
75460;BME280;64039;53.060;9.342;2022-11-27T11:15:57;101956.28;;;5.80;100.00
75460;BME280;64039;53.060;9.342;2022-11-27T11:18:25;101958.00;;;5.80;100.00
75460;BME280;64039;53.060;9.342;2022-11-27T11:21:03;101956.28;;;5.80;100.00
75460;BME280;64039;53.060;9.342;2022-11-27T11:23:33;101950.16;;;5.63;100.00
75460;BME280;64039;53.060;9.342;2022-11-27T11:26:03;101947.59;;;5.78;100.00
75460;BME280;64039;53.060;9.342;2022-11-27T11:28:30;101943.75;;;5.87;100.00
75460;BME280;64039;53.060;9.342;2022-11-27T11:31:04;101934.31;;;5.87;100.00
75460;BME280;64039;53.060;9.342;2022-11-27T11:33:36;101928.41;;;5.90;100.00
75460;BME280;64039;53.060;9.342;2022-11-27T11:36:09;101920.31;;;5.83;100.00
75460;BME280;64039;53.060;9.342;2022-11-27T11:38:35;101919.34;;;5.96;100.00
75460;BME280;64039;53.060;9.342;2022-11-27T11:41:05;101925.22;;;5.94;100.00
75460;BME280;64039;53.060;9.342;2022-11-27T11:43:35;101914.97;;;5.80;100.00
75460;BME280;64039;53.060;9.342;2022-11-27T11:46:17;101911.94;;;5.88;100.00
75460;BME280;64039;53.060;9.342;2022-11-27T11:48:55;101907.41;;;5.98;100.00
75460;BME280;64039;53.060;9.342;2022-11-27T11:56:59;101901.72;;;6.04;100.00
75460;BME280;64039;53.060;9.342;2022-11-27T11:59:33;101895.03;;;6.08;100.00
75460;BME280;64039;53.060;9.342;2022-11-27T12:02:27;101887.63;;;6.14;100.00
75460;BME280;64039;53.060;9.342;2022-11-27T12:05:14;101880.94;;;6.18;100.00
75460;BME280;64039;53.060;9.342;2022-11-27T12:19:09;101854.47;;;6.07;100.00
75460;BME280;64039;53.060;9.342;2022-11-27T12:21:48;101860.13;;;6.00;100.00
75460;BME280;64039;53.060;9.342;2022-11-27T12:27:26;101841.03;;;6.12;100.00
75460;BME280;64039;53.060;9.342;2022-11-27T12:30:02;101842.56;;;6.25;100.00
75460;BME280;64039;53.060;9.342;2022-11-27T12:32:32;101840.38;;;6.17;100.00
75460;BME280;64039;53.060;9.342;2022-11-27T12:35:29;101834.72;;;6.24;100.00
75460;BME280;64039;53.060;9.342;2022-11-27T12:43:40;101823.16;;;6.17;100.00
75460;BME280;64039;53.060;9.342;2022-11-27T12:46:23;101821.28;;;6.14;100.00
75460;BME280;64039;53.060;9.342;2022-11-27T12:48:55;101825.03;;;6.20;100.00
75460;BME280;64039;53.060;9.342;2022-11-27T12:51:45;101817.44;;;6.23;100.00
75460;BME280;64039;53.060;9.342;2022-11-27T12:54:28;101814.97;;;6.24;100.00
75460;BME280;64039;53.060;9.342;2022-11-27T12:56:57;101809.59;;;6.21;100.00
75460;BME280;64039;53.060;9.342;2022-11-27T13:05:05;101796.53;;;6.35;100.00
75460;BME280;64039;53.060;9.342;2022-11-27T13:10:31;101785.31;;;6.34;100.00
75460;BME280;64039;53.060;9.342;2022-11-27T13:15:52;101792.34;;;6.37;100.00
75460;BME280;64039;53.060;9.342;2022-11-27T13:18:36;101779.97;;;6.31;100.00
75460;BME280;64039;53.060;9.342;2022-11-27T13:21:28;101777.94;;;6.25;100.00
75460;BME280;64039;53.060;9.342;2022-11-27T13:23:52;101782.22;;;6.25;100.00
75460;BME280;64039;53.060;9.342;2022-11-27T13:26:26;101773.22;;;6.18;100.00
75460;BME280;64039;53.060;9.342;2022-11-27T13:28:59;101771.44;;;6.17;100.00
75460;BME280;64039;53.060;9.342;2022-11-27T13:31:28;101770.09;;;6.24;100.00
75460;BME280;64039;53.060;9.342;2022-11-27T13:34:00;101768.97;;;6.19;100.00
75460;BME280;64039;53.060;9.342;2022-11-27T13:36:39;101759.94;;;6.27;100.00
75460;BME280;64039;53.060;9.342;2022-11-27T13:39:16;101756.59;;;6.13;100.00
75460;BME280;64039;53.060;9.342;2022-11-27T13:41:47;101758.44;;;6.16;100.00
75460;BME280;64039;53.060;9.342;2022-11-27T13:44:24;101758.63;;;6.19;100.00
75460;BME280;64039;53.060;9.342;2022-11-27T13:46:52;101754.06;;;6.14;100.00
75460;BME280;64039;53.060;9.342;2022-11-27T13:49:27;101749.72;;;6.13;100.00
75460;BME280;64039;53.060;9.342;2022-11-27T13:52:28;101743.91;;;6.18;100.00
75460;BME280;64039;53.060;9.342;2022-11-27T13:57:25;101745.78;;;6.20;100.00
75460;BME280;64039;53.060;9.342;2022-11-27T14:00:11;101738.03;;;6.20;100.00
75460;BME280;64039;53.060;9.342;2022-11-27T14:02:43;101738.75;;;6.18;100.00
75460;BME280;64039;53.060;9.342;2022-11-27T14:05:14;101733.75;;;6.21;100.00
75460;BME280;64039;53.060;9.342;2022-11-27T14:07:42;101729.94;;;6.14;100.00
75460;BME280;64039;53.060;9.342;2022-11-27T14:10:27;101724.84;;;6.16;100.00
75460;BME280;64039;53.060;9.342;2022-11-27T14:12:57;101726.81;;;6.20;100.00
75460;BME280;64039;53.060;9.342;2022-11-27T14:15:26;101723.00;;;6.13;100.00
75460;BME280;64039;53.060;9.342;2022-11-27T14:18:03;101722.81;;;6.26;100.00
75460;BME280;64039;53.060;9.342;2022-11-27T14:20:34;101723.00;;;6.29;100.00
75460;BME280;64039;53.060;9.342;2022-11-27T14:23:02;101725.34;;;6.25;100.00
75460;BME280;64039;53.060;9.342;2022-11-27T14:25:30;101719.75;;;6.17;100.00
75460;BME280;64039;53.060;9.342;2022-11-27T14:30:38;101719.75;;;6.17;100.00
75460;BME280;64039;53.060;9.342;2022-11-27T14:33:14;101715.06;;;6.10;100.00